createdAt,value
2022-09-10T00:00:31.686Z,15.01
2022-09-10T00:02:58.337Z,15.21
2022-09-10T00:05:25.044Z,15.35
2022-09-10T00:07:51.757Z,15.36
2022-09-10T00:10:21.348Z,15.12
2022-09-10T00:12:48.179Z,15.17
2022-09-10T00:15:15.460Z,15.34
2022-09-10T00:17:42.104Z,15.44
2022-09-10T00:20:09.348Z,15.62
2022-09-10T00:22:35.973Z,15.72
2022-09-10T00:25:07.632Z,15.71
2022-09-10T00:27:35.950Z,15.60
2022-09-10T00:30:03.378Z,15.65
2022-09-10T00:32:29.998Z,15.61
2022-09-10T00:34:57.227Z,15.55
2022-09-10T00:37:23.811Z,15.65
2022-09-10T00:39:50.446Z,15.72
2022-09-10T00:42:19.620Z,15.87
2022-09-10T00:44:46.174Z,16.00
2022-09-10T00:47:17.615Z,15.92
2022-09-10T00:49:48.517Z,15.99
2022-09-10T00:52:15.366Z,15.86
2022-09-10T00:54:42.766Z,15.98
2022-09-10T00:57:13.997Z,16.01
2022-09-10T00:59:42.910Z,15.96
2022-09-10T01:02:09.783Z,16.03
2022-09-10T01:04:36.608Z,15.95
2022-09-10T01:07:03.287Z,15.96
2022-09-10T01:09:32.634Z,16.06
2022-09-10T01:12:08.182Z,15.93
2022-09-10T01:14:40.828Z,15.62
2022-09-10T01:17:46.738Z,15.48
2022-09-10T01:20:16.315Z,15.44
2022-09-10T01:23:27.968Z,15.37
2022-09-10T01:26:09.407Z,15.36
2022-09-10T01:28:54.480Z,15.46
2022-09-10T01:31:30.799Z,15.64
2022-09-10T01:34:03.780Z,15.40
2022-09-10T01:36:33.815Z,15.52
2022-09-10T01:39:00.777Z,15.56
2022-09-10T01:41:28.441Z,15.57
2022-09-10T01:43:55.052Z,15.69
2022-09-10T01:46:59.038Z,15.59
2022-09-10T01:49:41.119Z,15.60
2022-09-10T01:52:32.569Z,15.73
2022-09-10T01:55:10.599Z,15.87
2022-09-10T01:57:49.556Z,15.69
2022-09-10T02:00:17.224Z,15.76
2022-09-10T02:02:58.469Z,15.74
2022-09-10T02:05:26.555Z,15.90
2022-09-10T02:07:56.138Z,15.76
2022-09-10T02:10:22.922Z,15.69
2022-09-10T02:12:49.518Z,15.72
2022-09-10T02:15:18.408Z,15.59
2022-09-10T02:17:45.512Z,15.54
2022-09-10T02:20:13.282Z,15.59
2022-09-10T02:22:43.134Z,15.63
2022-09-10T02:25:10.711Z,15.55
2022-09-10T02:27:37.317Z,15.62
2022-09-10T02:30:06.122Z,15.75
2022-09-10T02:32:35.323Z,15.78
2022-09-10T02:35:05.414Z,15.79
2022-09-10T02:37:32.025Z,15.69
2022-09-10T02:39:58.666Z,15.74
2022-09-10T02:42:25.306Z,15.77
2022-09-10T02:44:51.880Z,15.78
2022-09-10T02:47:18.464Z,15.80
2022-09-10T02:49:45.075Z,15.79
2022-09-10T02:52:11.752Z,15.72
2022-09-10T02:54:38.487Z,15.76
2022-09-10T02:57:05.209Z,15.65
2022-09-10T02:59:31.784Z,15.58
2022-09-10T03:01:58.453Z,15.60
2022-09-10T03:04:25.177Z,15.46
2022-09-10T03:06:51.794Z,15.46
2022-09-10T03:09:18.398Z,15.59
2022-09-10T03:11:45.064Z,15.66
2022-09-10T03:14:11.804Z,15.54
2022-09-10T03:16:38.500Z,15.60
2022-09-10T03:19:05.132Z,15.59
2022-09-10T03:21:31.695Z,15.72
2022-09-10T03:23:58.357Z,15.74
2022-09-10T03:26:25.236Z,15.41
2022-09-10T03:28:51.998Z,15.36
2022-09-10T03:31:19.097Z,15.44
2022-09-10T03:33:45.730Z,15.55
2022-09-10T03:36:12.327Z,15.70
2022-09-10T03:38:39.341Z,15.80
2022-09-10T03:41:06.062Z,15.69
2022-09-10T03:43:32.721Z,15.60
2022-09-10T03:45:59.327Z,15.65
2022-09-10T03:48:25.949Z,15.52
2022-09-10T03:50:52.566Z,15.39
2022-09-10T03:53:19.654Z,15.43
2022-09-10T03:55:48.747Z,15.29
2022-09-10T03:58:16.668Z,15.45
2022-09-10T04:00:43.587Z,15.43
2022-09-10T04:03:10.381Z,15.41
2022-09-10T04:05:39.352Z,15.46
2022-09-10T04:08:06.402Z,15.40
2022-09-10T04:10:33.349Z,15.40
2022-09-10T04:12:59.924Z,15.40
2022-09-10T04:15:26.583Z,15.46
2022-09-10T04:17:53.236Z,15.55
2022-09-10T04:20:19.889Z,15.68
2022-09-10T04:22:47.624Z,15.84
2022-09-10T04:25:14.933Z,15.90
2022-09-10T04:27:45.740Z,15.88
2022-09-10T04:30:13.103Z,15.92
2022-09-10T04:32:39.698Z,15.75
2022-09-10T04:35:09.142Z,15.74
2022-09-10T04:37:35.811Z,15.70
2022-09-10T04:40:02.908Z,15.50
2022-09-10T04:42:29.623Z,15.54
2022-09-10T04:44:56.200Z,15.53
2022-09-10T04:47:22.778Z,15.43
2022-09-10T04:49:49.378Z,15.32
2022-09-10T04:52:15.968Z,15.33
2022-09-10T04:54:42.736Z,15.36
2022-09-10T04:57:09.698Z,15.50
2022-09-10T04:59:36.284Z,15.37
2022-09-10T05:02:03.142Z,15.33
2022-09-10T05:04:29.740Z,15.28
2022-09-10T05:06:56.320Z,15.35
2022-09-10T05:09:22.897Z,15.35
2022-09-10T05:11:49.500Z,15.31
2022-09-10T05:14:16.434Z,15.28
2022-09-10T05:16:43.049Z,15.21
2022-09-10T05:19:09.792Z,15.14
2022-09-10T05:21:36.358Z,15.21
2022-09-10T05:24:03.110Z,15.18
2022-09-10T05:26:29.798Z,15.16
2022-09-10T05:28:56.411Z,15.16
2022-09-10T05:31:23.036Z,15.10
2022-09-10T05:33:49.738Z,15.21
2022-09-10T05:36:16.388Z,15.26
2022-09-10T05:38:45.380Z,15.10
2022-09-10T05:41:12.797Z,15.17
2022-09-10T05:43:39.472Z,15.11
2022-09-10T05:46:06.116Z,15.07
2022-09-10T05:48:32.729Z,15.08
2022-09-10T05:50:59.293Z,15.12
2022-09-10T05:53:25.915Z,15.13
2022-09-10T05:55:52.487Z,15.14
2022-09-10T05:58:19.077Z,15.11
2022-09-10T06:00:45.654Z,15.26
2022-09-10T06:03:12.393Z,15.25
2022-09-10T06:05:39.027Z,15.21
2022-09-10T06:08:08.770Z,15.32
2022-09-10T06:10:35.815Z,15.58
2022-09-10T06:13:02.378Z,15.54
2022-09-10T06:15:28.984Z,15.73
2022-09-10T06:17:55.613Z,15.74
2022-09-10T06:20:22.329Z,15.80
2022-09-10T06:22:48.941Z,15.78
2022-09-10T06:25:15.519Z,15.81
2022-09-10T06:27:42.088Z,16.07
2022-09-10T06:30:08.923Z,16.14
2022-09-10T06:32:35.564Z,16.24
2022-09-10T06:35:02.121Z,16.28
2022-09-10T06:37:28.700Z,16.58
2022-09-10T06:39:55.443Z,16.64
2022-09-10T06:42:22.084Z,16.56
2022-09-10T06:44:48.649Z,16.61
2022-09-10T06:50:01.920Z,16.88
2022-09-10T06:52:29.324Z,17.27
2022-09-10T06:54:55.969Z,17.32
2022-09-10T06:57:25.911Z,17.48
2022-09-10T06:59:52.383Z,17.63
2022-09-10T07:02:21.775Z,17.80
2022-09-10T07:04:48.473Z,17.56
2022-09-10T07:07:15.127Z,17.80
2022-09-10T07:09:41.703Z,17.85
2022-09-10T07:12:08.280Z,17.79
2022-09-10T07:14:34.883Z,17.84
2022-09-10T07:17:01.463Z,17.93
2022-09-10T07:19:28.050Z,18.02
2022-09-10T07:21:54.684Z,18.11
2022-09-10T07:24:21.260Z,18.20
2022-09-10T07:26:47.917Z,17.92
2022-09-10T07:29:14.592Z,17.78
2022-09-10T07:31:41.195Z,17.87
2022-09-10T07:34:07.766Z,17.87
2022-09-10T07:36:34.375Z,17.92
2022-09-10T07:39:00.986Z,18.02
2022-09-10T07:41:30.656Z,17.65
2022-09-10T07:43:57.948Z,17.69
2022-09-10T07:46:24.721Z,18.00
2022-09-10T07:48:56.137Z,18.46
2022-09-10T07:51:22.841Z,19.43
2022-09-10T07:53:53.714Z,20.09
2022-09-10T07:56:20.485Z,20.35
2022-09-10T07:58:50.767Z,20.38
2022-09-10T08:01:17.445Z,20.87
2022-09-10T08:03:44.026Z,21.01
2022-09-10T08:06:10.611Z,21.37
2022-09-10T08:08:39.036Z,21.25
2022-09-10T08:11:17.026Z,21.42
2022-09-10T08:13:48.808Z,21.44
2022-09-10T08:16:20.933Z,21.82
2022-09-10T08:18:48.101Z,22.03
2022-09-10T08:21:18.036Z,21.48
2022-09-10T08:23:51.630Z,20.90
2022-09-10T08:26:21.352Z,20.62
2022-09-10T08:28:47.975Z,21.08
2022-09-10T08:31:15.547Z,21.36
2022-09-10T08:33:50.399Z,21.33
2022-09-10T08:36:18.574Z,21.01
2022-09-10T08:39:08.135Z,20.80
2022-09-10T08:41:37.687Z,20.34
2022-09-10T08:44:10.393Z,19.81
2022-09-10T08:46:42.978Z,19.62
2022-09-10T08:49:33.538Z,19.66
2022-09-10T08:52:15.651Z,19.80
2022-09-10T08:54:53.317Z,19.67
2022-09-10T08:57:26.602Z,19.26
2022-09-10T08:59:54.902Z,19.00
2022-09-10T09:02:57.056Z,19.07
2022-09-10T09:05:24.993Z,18.66
2022-09-10T09:07:52.164Z,18.68
2022-09-10T09:10:24.931Z,18.67
2022-09-10T09:13:16.678Z,18.64
2022-09-10T09:15:55.427Z,18.69
2022-09-10T09:18:28.388Z,18.93
2022-09-10T09:20:57.848Z,19.09
2022-09-10T09:23:29.942Z,19.28
2022-09-10T09:26:04.577Z,19.40
2022-09-10T09:28:47.806Z,19.52
2022-09-10T09:31:17.864Z,20.01
2022-09-10T09:33:45.072Z,19.94
2022-09-10T09:36:17.012Z,19.73
2022-09-10T09:38:49.386Z,19.63
2022-09-10T09:41:41.891Z,19.59
2022-09-10T09:44:28.879Z,19.40
2022-09-10T09:46:55.449Z,19.48
2022-09-10T09:49:23.412Z,19.82
2022-09-10T09:51:50.143Z,19.82
2022-09-10T09:54:56.932Z,19.81
2022-09-10T09:57:15.585Z,20.10
2022-09-10T09:59:42.314Z,20.29
2022-09-10T10:02:14.308Z,20.62
2022-09-10T10:05:01.686Z,20.62
2022-09-10T10:07:30.954Z,20.67
2022-09-10T10:10:07.233Z,20.58
2022-09-10T10:12:34.204Z,20.77
2022-09-10T10:15:01.342Z,20.95
2022-09-10T10:17:39.373Z,21.05
2022-09-10T10:20:08.080Z,21.17
2022-09-10T10:22:36.060Z,21.32
2022-09-10T10:25:05.169Z,21.57
2022-09-10T10:27:37.002Z,21.80
2022-09-10T10:30:09.554Z,21.57
2022-09-10T10:32:58.904Z,21.93
2022-09-10T10:35:31.460Z,22.14
2022-09-10T10:38:09.707Z,22.16
2022-09-10T10:41:10.381Z,22.24
2022-09-10T10:44:08.014Z,22.44
2022-09-10T10:46:56.603Z,21.99
2022-09-10T10:49:50.933Z,22.26
2022-09-10T10:52:33.138Z,22.07
2022-09-10T10:55:20.993Z,22.36
2022-09-10T10:57:57.894Z,22.57
2022-09-10T11:00:24.684Z,22.61
2022-09-10T11:03:11.199Z,22.71
2022-09-10T11:05:39.432Z,22.53
2022-09-10T11:08:17.991Z,22.12
2022-09-10T11:10:51.848Z,21.85
2022-09-10T11:13:22.040Z,21.66
2022-09-10T11:15:59.600Z,22.04
2022-09-10T11:18:50.372Z,22.21
2022-09-10T11:21:39.813Z,22.24
2022-09-10T11:24:17.245Z,22.44
2022-09-10T11:26:58.661Z,22.61
2022-09-10T11:29:25.310Z,22.37
2022-09-10T11:31:59.470Z,21.77
2022-09-10T11:34:32.492Z,22.16
2022-09-10T11:37:05.232Z,22.35
2022-09-10T11:39:42.467Z,22.69
2022-09-10T11:42:27.678Z,22.95
2022-09-10T11:45:05.546Z,23.36
2022-09-10T11:47:39.231Z,23.44
2022-09-10T11:50:15.195Z,23.59
2022-09-10T11:52:42.204Z,23.51
2022-09-10T11:55:14.320Z,23.44
2022-09-10T11:57:43.827Z,23.41
2022-09-10T12:00:11.293Z,23.45
2022-09-10T12:02:53.156Z,23.65
2022-09-10T12:05:32.891Z,23.40
2022-09-10T12:08:18.321Z,23.61
2022-09-10T12:11:06.648Z,23.54
2022-09-10T12:13:37.088Z,23.42
2022-09-10T12:16:15.388Z,23.23
2022-09-10T12:18:45.523Z,23.00
2022-09-10T12:21:34.819Z,22.90
2022-09-10T12:24:05.440Z,22.59
2022-09-10T12:26:41.582Z,22.76
2022-09-10T12:29:24.792Z,23.12
2022-09-10T12:32:09.831Z,22.89
2022-09-10T12:34:36.867Z,23.01
2022-09-10T12:37:03.344Z,23.01
2022-09-10T12:39:30.300Z,23.04
2022-09-10T12:42:01.729Z,23.36
2022-09-10T12:44:30.225Z,23.16
2022-09-10T12:47:14.880Z,22.67
2022-09-10T12:49:51.326Z,22.80
2022-09-10T12:52:35.888Z,22.58
2022-09-10T12:55:39.822Z,22.54
2022-09-10T12:58:19.283Z,22.80
2022-09-10T13:00:58.789Z,22.62
2022-09-10T13:03:27.878Z,22.40
2022-09-10T13:05:56.767Z,22.42
2022-09-10T13:08:27.861Z,22.24
2022-09-10T13:10:58.615Z,22.24
2022-09-10T13:13:56.011Z,22.61
2022-09-10T13:16:25.632Z,22.62
2022-09-10T13:18:56.952Z,22.66
2022-09-10T13:21:23.806Z,23.01
2022-09-10T13:23:51.783Z,22.91
2022-09-10T13:26:30.404Z,23.04
2022-09-10T13:28:56.938Z,23.09
2022-09-10T13:31:42.507Z,23.21
2022-09-10T13:34:15.147Z,23.33
2022-09-10T13:37:04.566Z,23.35
2022-09-10T13:39:36.272Z,23.19
2022-09-10T13:42:35.866Z,22.99
2022-09-10T13:45:22.136Z,22.74
2022-09-10T13:48:12.396Z,22.55
2022-09-10T13:51:01.625Z,22.47
2022-09-10T13:53:29.056Z,22.58
2022-09-10T13:55:58.933Z,22.02
2022-09-10T13:58:28.308Z,22.05
2022-09-10T14:00:57.373Z,22.04
2022-09-10T14:03:35.818Z,22.15
2022-09-10T14:06:02.924Z,22.00
2022-09-10T14:08:35.207Z,21.77
2022-09-10T14:11:13.685Z,21.81
2022-09-10T14:13:45.164Z,21.69
2022-09-10T14:16:16.279Z,21.97
2022-09-10T14:18:46.263Z,22.15
2022-09-10T14:21:14.211Z,21.54
2022-09-10T14:23:45.811Z,21.46
2022-09-10T14:26:15.554Z,21.44
2022-09-10T14:28:50.112Z,21.43
2022-09-10T14:31:24.801Z,21.38
2022-09-10T14:33:51.437Z,21.71
2022-09-10T14:36:21.222Z,21.97
2022-09-10T14:39:06.704Z,22.21
2022-09-10T14:41:34.472Z,22.45
2022-09-10T14:44:26.607Z,22.00
2022-09-10T14:46:57.542Z,21.94
2022-09-10T14:49:35.489Z,22.00
2022-09-10T14:52:02.898Z,21.96
2022-09-10T14:54:30.541Z,22.10
2022-09-10T14:56:57.808Z,22.11
2022-09-10T14:59:30.055Z,21.79
2022-09-10T15:01:57.433Z,21.58
2022-09-10T15:04:25.397Z,21.54
2022-09-10T15:06:56.984Z,21.27
2022-09-10T15:09:24.800Z,21.24
2022-09-10T15:12:08.286Z,21.37
2022-09-10T15:14:35.198Z,21.43
2022-09-10T15:17:02.199Z,21.46
2022-09-10T15:19:28.829Z,21.52
2022-09-10T15:21:55.411Z,21.20
2022-09-10T15:24:23.054Z,21.13
2022-09-10T15:26:49.948Z,20.97
2022-09-10T15:29:17.069Z,21.16
2022-09-10T15:31:43.709Z,21.41
2022-09-10T15:34:11.243Z,21.48
2022-09-10T15:36:40.255Z,21.56
2022-09-10T15:39:10.433Z,21.48
2022-09-10T15:41:41.192Z,21.55
2022-09-10T15:44:07.869Z,21.63
2022-09-10T15:46:34.464Z,21.38
2022-09-10T15:49:03.872Z,21.30
2022-09-10T15:51:32.603Z,21.24
2022-09-10T15:54:04.298Z,21.31
2022-09-10T15:56:33.176Z,21.18
2022-09-10T15:58:59.798Z,20.86
2022-09-10T16:01:27.128Z,21.03
2022-09-10T16:03:56.104Z,20.89
2022-09-10T16:06:24.165Z,20.79
2022-09-10T16:09:02.503Z,20.62
2022-09-10T16:11:30.730Z,20.40
2022-09-10T16:14:02.179Z,20.21
2022-09-10T16:16:31.629Z,20.14
2022-09-10T16:18:58.315Z,20.13
2022-09-10T16:21:27.521Z,20.07
2022-09-10T16:23:56.218Z,19.92
2022-09-10T16:26:28.228Z,19.90
2022-09-10T16:28:56.957Z,19.82
2022-09-10T16:31:30.306Z,19.53
2022-09-10T16:33:58.999Z,19.39
2022-09-10T16:36:26.633Z,19.24
2022-09-10T16:38:57.451Z,19.16
2022-09-10T16:41:26.442Z,19.10
2022-09-10T16:43:53.384Z,19.17
2022-09-10T16:46:20.025Z,19.21
2022-09-10T16:48:47.318Z,19.13
2022-09-10T16:51:15.681Z,19.13
2022-09-10T16:53:52.203Z,19.28
2022-09-10T16:56:18.799Z,19.49
2022-09-10T16:58:47.574Z,19.60
2022-09-10T17:01:14.769Z,19.44
2022-09-10T17:03:46.205Z,19.35
2022-09-10T17:06:17.400Z,19.33
2022-09-10T17:08:44.370Z,19.42
2022-09-10T17:11:12.061Z,19.39
2022-09-10T17:13:38.621Z,19.39
2022-09-10T17:16:28.815Z,19.41
2022-09-10T17:19:04.248Z,19.26
2022-09-10T17:21:32.002Z,19.36
2022-09-10T17:23:59.090Z,19.39
2022-09-10T17:26:26.485Z,19.50
2022-09-10T17:28:57.990Z,19.46
2022-09-10T17:31:25.068Z,19.41
2022-09-10T17:33:51.848Z,19.61
2022-09-10T17:36:18.469Z,19.59
2022-09-10T17:38:45.716Z,19.52
2022-09-10T17:41:12.536Z,19.43
2022-09-10T17:43:39.404Z,19.42
2022-09-10T17:46:07.352Z,19.36
2022-09-10T17:48:34.034Z,19.54
2022-09-10T17:51:00.639Z,19.46
2022-09-10T17:53:27.809Z,19.25
2022-09-10T17:55:54.675Z,19.30
2022-09-10T17:58:21.310Z,19.21
2022-09-10T18:00:48.265Z,19.16
2022-09-10T18:03:17.968Z,19.10
2022-09-10T18:05:45.438Z,19.21
2022-09-10T18:08:12.738Z,19.35
2022-09-10T18:10:39.650Z,19.06
2022-09-10T18:13:06.390Z,18.83
2022-09-10T18:15:32.968Z,18.89
2022-09-10T18:18:02.747Z,18.84
2022-09-10T18:20:29.573Z,18.98
2022-09-10T18:22:58.689Z,18.98
2022-09-10T18:25:28.966Z,19.15
2022-09-10T18:27:55.680Z,19.21
2022-09-10T18:30:22.267Z,19.04
2022-09-10T18:32:48.937Z,18.89
2022-09-10T18:35:15.584Z,18.92
2022-09-10T18:37:42.162Z,18.99
2022-09-10T18:40:09.471Z,18.71
2022-09-10T18:42:36.501Z,18.94
2022-09-10T18:45:03.356Z,19.00
2022-09-10T18:47:44.146Z,18.92
2022-09-10T18:50:11.403Z,18.95
2022-09-10T18:52:38.037Z,18.99
2022-09-10T18:55:05.066Z,19.09
2022-09-10T18:57:31.691Z,19.24
2022-09-10T18:59:58.422Z,19.34
2022-09-10T19:02:25.082Z,19.29
2022-09-10T19:05:10.347Z,19.22
2022-09-10T19:07:37.700Z,19.21
2022-09-10T19:10:04.656Z,19.13
2022-09-10T19:12:31.585Z,19.08
2022-09-10T19:14:58.179Z,19.20
2022-09-10T19:17:24.884Z,19.02
2022-09-10T19:19:51.460Z,18.92
2022-09-10T19:22:18.027Z,18.95
2022-09-10T19:24:54.440Z,18.88
2022-09-10T19:27:22.189Z,18.93
2022-09-10T19:29:48.796Z,18.94
2022-09-10T19:32:15.415Z,19.03
2022-09-10T19:34:42.087Z,19.04
2022-09-10T19:37:08.649Z,19.17
2022-09-10T19:39:35.337Z,19.19
2022-09-10T19:42:01.943Z,19.02
2022-09-10T19:44:28.533Z,18.70
2022-09-10T19:46:55.126Z,18.63
2022-09-10T19:49:21.699Z,18.73
2022-09-10T19:51:48.288Z,18.78
2022-09-10T19:54:14.965Z,18.87
2022-09-10T19:56:44.367Z,18.80
2022-09-10T19:59:10.971Z,18.91
2022-09-10T20:01:40.068Z,18.85
2022-09-10T20:04:09.028Z,18.70
2022-09-10T20:06:36.421Z,18.43
2022-09-10T20:09:05.041Z,18.31
2022-09-10T20:11:33.039Z,18.11
2022-09-10T20:14:01.644Z,18.18
2022-09-10T20:16:29.556Z,18.29
2022-09-10T20:18:56.236Z,18.30
2022-09-10T20:21:25.777Z,18.11
2022-09-10T20:23:53.516Z,17.95
2022-09-10T20:26:24.705Z,18.07
2022-09-10T20:28:53.902Z,17.90
2022-09-10T20:31:23.303Z,17.78
2022-09-10T20:33:54.452Z,17.87
2022-09-10T20:36:21.042Z,17.78
2022-09-10T20:38:47.634Z,17.53
2022-09-10T20:41:14.380Z,17.60
2022-09-10T20:43:41.037Z,17.66
2022-09-10T20:46:15.732Z,17.92
2022-09-10T20:48:48.365Z,17.92
2022-09-10T20:51:16.336Z,18.07
2022-09-10T20:53:43.334Z,18.13
2022-09-10T20:56:12.596Z,18.24
2022-09-10T20:58:39.510Z,18.28
2022-09-10T21:01:12.557Z,18.25
2022-09-10T21:03:40.289Z,18.23
2022-09-10T21:06:07.878Z,17.78
2022-09-10T21:08:35.609Z,17.62
2022-09-10T21:11:07.070Z,17.49
2022-09-10T21:13:34.843Z,17.39
2022-09-10T21:16:15.240Z,17.47
2022-09-10T21:18:42.378Z,17.29
2022-09-10T21:21:35.467Z,17.65
2022-09-10T21:24:08.394Z,17.77
2022-09-10T21:26:36.644Z,17.92
2022-09-10T21:29:05.896Z,18.04
2022-09-10T21:31:32.894Z,18.11
2022-09-10T21:34:03.039Z,18.11
2022-09-10T21:36:31.403Z,18.12
2022-09-10T21:39:00.269Z,17.94
2022-09-10T21:41:32.105Z,17.88
2022-09-10T21:44:00.374Z,17.67
2022-09-10T21:46:27.441Z,17.60
2022-09-10T21:48:54.361Z,17.41
2022-09-10T21:51:21.845Z,17.19
2022-09-10T21:53:52.273Z,17.06
2022-09-10T21:56:19.038Z,17.08
2022-09-10T21:58:45.748Z,17.09
2022-09-10T22:01:14.969Z,17.01
2022-09-10T22:03:41.638Z,16.85
2022-09-10T22:06:16.556Z,16.84
2022-09-10T22:08:45.674Z,16.60
2022-09-10T22:11:15.044Z,16.54
2022-09-10T22:13:42.124Z,16.48
2022-09-10T22:16:10.116Z,16.35
2022-09-10T22:18:41.740Z,16.33
2022-09-10T22:21:09.334Z,16.27
2022-09-10T22:23:37.731Z,16.23
2022-09-10T22:26:12.594Z,16.20
2022-09-10T22:28:39.408Z,16.17
2022-09-10T22:31:09.719Z,16.28
2022-09-10T22:33:40.952Z,16.17
2022-09-10T22:36:11.080Z,16.12
2022-09-10T22:38:37.813Z,16.10
2022-09-10T22:41:05.200Z,16.03
2022-09-10T22:43:34.260Z,15.92
2022-09-10T22:46:01.284Z,15.88
2022-09-10T22:48:27.980Z,15.82
2022-09-10T22:50:54.572Z,15.97
2022-09-10T22:53:22.690Z,15.89
2022-09-10T22:55:49.366Z,15.87
2022-09-10T22:58:16.196Z,15.96
2022-09-10T23:00:42.797Z,16.13
2022-09-10T23:03:09.433Z,16.27
2022-09-10T23:05:38.621Z,16.29
2022-09-10T23:08:05.298Z,16.31
2022-09-10T23:10:31.881Z,16.15
2022-09-10T23:12:58.474Z,16.17
2022-09-10T23:15:25.102Z,16.27
2022-09-10T23:17:53.915Z,16.07
2022-09-10T23:20:20.526Z,15.99
2022-09-10T23:22:48.215Z,15.99
2022-09-10T23:25:14.834Z,15.87
2022-09-10T23:27:41.392Z,15.69
2022-09-10T23:30:08.432Z,15.84
2022-09-10T23:32:35.018Z,15.75
2022-09-10T23:35:01.708Z,15.68
2022-09-10T23:37:28.278Z,15.76
2022-09-10T23:39:55.128Z,15.80
2022-09-10T23:42:21.767Z,15.70
2022-09-10T23:44:48.355Z,15.54
2022-09-10T23:47:14.942Z,15.58
2022-09-10T23:49:41.582Z,15.66
2022-09-10T23:52:08.199Z,15.57
2022-09-10T23:54:34.871Z,15.39
2022-09-10T23:57:01.459Z,15.27
2022-09-10T23:59:28.070Z,15.24
